createdAt,value
2023-01-20T00:01:47.249Z,91045.16
2023-01-20T00:04:19.539Z,91020.53
2023-01-20T00:06:51.716Z,90988.00
2023-01-20T00:09:23.758Z,90953.97
2023-01-20T00:11:56.513Z,90901.69
2023-01-20T00:14:28.650Z,90890.97
2023-01-20T00:17:01.433Z,90871.16
2023-01-20T00:19:33.572Z,90879.75
2023-01-20T00:22:05.724Z,90866.97
2023-01-20T00:24:37.766Z,90877.31
2023-01-20T00:27:10.540Z,90880.19
2023-01-20T00:29:43.655Z,90893.03
2023-01-20T00:32:16.051Z,90870.81
2023-01-20T00:34:48.063Z,90882.88
2023-01-20T00:37:20.103Z,90894.63
2023-01-20T00:39:52.114Z,90871.34
2023-01-20T00:42:24.920Z,90847.41
2023-01-20T00:44:56.952Z,90858.88
2023-01-20T00:47:29.023Z,90866.06
2023-01-20T00:50:01.541Z,90870.78
2023-01-20T00:52:33.706Z,90875.84
2023-01-20T00:55:06.119Z,90885.78
2023-01-20T00:57:38.864Z,90873.41
2023-01-20T01:00:11.321Z,90875.25
2023-01-20T01:02:43.459Z,90877.38
2023-01-20T01:05:15.692Z,90862.28
2023-01-20T01:07:48.008Z,90866.53
2023-01-20T01:10:20.028Z,90875.06
2023-01-20T01:12:53.040Z,90874.47
2023-01-20T01:15:25.058Z,90874.31
2023-01-20T01:17:57.781Z,90862.28
2023-01-20T01:20:29.931Z,90861.81
2023-01-20T01:23:02.081Z,90870.81
2023-01-20T01:25:34.115Z,90871.44
2023-01-20T01:28:06.885Z,90882.13
2023-01-20T01:30:38.977Z,90863.97
2023-01-20T01:33:11.599Z,90859.06
2023-01-20T01:35:43.647Z,90876.16
2023-01-20T01:38:15.732Z,90863.97
2023-01-20T01:40:48.412Z,90867.50
2023-01-20T01:43:22.414Z,90873.13
2023-01-20T01:45:54.758Z,90881.97
2023-01-20T01:48:28.456Z,90885.81
2023-01-20T01:51:02.543Z,90888.69
2023-01-20T01:53:39.539Z,90900.31
2023-01-20T01:56:11.765Z,90894.50
2023-01-20T01:58:47.175Z,90901.97
2023-01-20T02:01:20.128Z,90892.03
2023-01-20T02:03:55.636Z,90893.88
2023-01-20T02:06:29.796Z,90884.59
2023-01-20T02:09:03.070Z,90870.53
2023-01-20T02:11:36.628Z,90872.66
2023-01-20T02:14:09.458Z,90868.38
2023-01-20T02:16:48.620Z,90853.72
2023-01-20T02:19:30.889Z,90852.06
2023-01-20T02:22:10.030Z,90853.72
2023-01-20T02:25:08.944Z,90852.78
2023-01-20T02:27:47.515Z,90857.84
2023-01-20T02:30:34.436Z,90841.66
2023-01-20T02:33:10.151Z,90832.00
2023-01-20T02:35:45.390Z,90839.81
2023-01-20T02:38:26.861Z,90838.00
2023-01-20T02:41:06.499Z,90823.66
2023-01-20T02:43:43.030Z,90825.50
2023-01-20T02:46:20.791Z,90822.47
2023-01-20T02:48:55.059Z,90823.06
2023-01-20T02:51:30.319Z,90818.63
2023-01-20T02:54:05.867Z,90810.84
2023-01-20T02:56:38.452Z,90802.13
2023-01-20T02:59:11.740Z,90786.13
2023-01-20T03:01:47.937Z,90786.25
2023-01-20T03:04:23.276Z,90794.19
2023-01-20T03:06:58.547Z,90789.31
2023-01-20T03:09:33.307Z,90786.09
2023-01-20T03:12:09.856Z,90797.56
2023-01-20T03:14:42.019Z,90789.94
2023-01-20T03:17:14.108Z,90795.09
2023-01-20T03:19:46.907Z,90789.28
2023-01-20T03:22:18.958Z,90785.78
2023-01-20T03:24:51.524Z,90781.16
2023-01-20T03:27:23.861Z,90774.34
2023-01-20T03:29:56.240Z,90780.28
2023-01-20T03:32:28.893Z,90791.66
2023-01-20T03:35:01.868Z,90795.28
2023-01-20T03:37:34.094Z,90793.44
2023-01-20T03:40:06.909Z,90797.88
2023-01-20T03:42:43.514Z,90782.94
2023-01-20T03:45:20.152Z,90804.16
2023-01-20T03:47:56.730Z,90800.72
2023-01-20T03:50:36.119Z,90782.66
2023-01-20T03:53:15.666Z,90774.84
2023-01-20T03:55:50.033Z,90764.06
2023-01-20T03:58:25.555Z,90775.41
2023-01-20T04:00:58.432Z,90768.06
2023-01-20T04:03:32.341Z,90759.16
2023-01-20T04:06:07.288Z,90765.91
2023-01-20T04:08:41.488Z,90764.75
2023-01-20T04:11:13.639Z,90765.03
2023-01-20T04:13:45.800Z,90763.38
2023-01-20T04:16:19.046Z,90743.31
2023-01-20T04:18:51.643Z,90734.78
2023-01-20T04:21:29.568Z,90731.25
2023-01-20T04:24:04.942Z,90732.97
2023-01-20T04:26:37.052Z,90734.38
2023-01-20T04:29:12.014Z,90724.78
2023-01-20T04:31:45.082Z,90704.19
2023-01-20T04:34:17.170Z,90727.81
2023-01-20T04:36:49.900Z,90742.13
2023-01-20T04:39:22.356Z,90750.50
2023-01-20T04:41:54.437Z,90753.44
2023-01-20T04:44:26.524Z,90752.19
2023-01-20T04:46:58.741Z,90767.72
2023-01-20T04:49:30.883Z,90770.09
2023-01-20T04:52:03.789Z,90774.25
2023-01-20T04:54:35.831Z,90785.69
2023-01-20T04:57:07.988Z,90797.16
2023-01-20T04:59:41.276Z,90793.81
2023-01-20T05:02:13.466Z,90805.72
2023-01-20T05:04:45.558Z,90796.41
2023-01-20T05:07:18.427Z,90802.94
2023-01-20T05:09:50.418Z,90786.97
2023-01-20T05:12:22.558Z,90785.16
2023-01-20T05:14:54.893Z,90801.72
2023-01-20T05:17:26.920Z,90803.41
2023-01-20T05:19:59.006Z,90803.00
2023-01-20T05:22:32.489Z,90815.72
2023-01-20T05:25:05.235Z,90815.91
2023-01-20T05:27:37.496Z,90822.78
2023-01-20T05:30:10.717Z,90815.84
2023-01-20T05:32:48.356Z,90817.88
2023-01-20T05:35:20.590Z,90814.31
2023-01-20T05:37:54.097Z,90796.25
2023-01-20T05:40:26.512Z,90750.63
2023-01-20T05:42:58.781Z,90753.09
2023-01-20T05:45:31.707Z,90727.03
2023-01-20T05:48:04.108Z,90737.41
2023-01-20T05:50:36.152Z,90731.16
2023-01-20T05:53:08.895Z,90745.94
2023-01-20T05:55:40.929Z,90753.72
2023-01-20T05:58:14.076Z,90744.28
2023-01-20T06:00:46.071Z,90716.41
2023-01-20T06:03:18.132Z,90718.59
2023-01-20T06:05:50.138Z,90729.94
2023-01-20T06:08:22.850Z,90730.72
2023-01-20T06:10:54.968Z,90756.34
2023-01-20T06:13:27.066Z,90761.00
2023-01-20T06:15:59.045Z,90765.81
2023-01-20T06:18:31.103Z,90762.97
2023-01-20T06:21:03.260Z,90768.41
2023-01-20T06:23:36.070Z,90770.66
2023-01-20T06:26:08.846Z,90775.66
2023-01-20T06:28:41.199Z,90766.41
2023-01-20T06:31:14.617Z,90772.88
2023-01-20T06:33:46.804Z,90770.03
2023-01-20T06:36:18.845Z,90764.41
2023-01-20T06:38:52.377Z,90764.09
2023-01-20T06:41:25.360Z,90762.44
2023-01-20T06:43:57.435Z,90757.44
2023-01-20T06:46:29.715Z,90740.66
2023-01-20T06:49:01.786Z,90744.88
2023-01-20T06:51:33.929Z,90749.81
2023-01-20T06:54:06.590Z,90756.56
2023-01-20T06:56:38.747Z,90753.25
2023-01-20T06:59:11.268Z,90754.78
2023-01-20T07:01:43.332Z,90742.72
2023-01-20T07:04:15.512Z,90745.84
2023-01-20T07:06:47.552Z,90737.00
2023-01-20T07:09:20.211Z,90738.22
2023-01-20T07:11:52.343Z,90737.44
2023-01-20T07:14:24.524Z,90748.09
2023-01-20T07:16:56.528Z,90753.25
2023-01-20T07:19:28.646Z,90747.91
2023-01-20T07:22:00.887Z,90759.50
2023-01-20T07:24:33.569Z,90745.28
2023-01-20T07:27:05.579Z,90744.28
2023-01-20T07:29:37.821Z,90737.13
2023-01-20T07:32:09.830Z,90741.50
2023-01-20T07:34:41.972Z,90743.91
2023-01-20T07:37:14.032Z,90746.56
2023-01-20T07:39:46.668Z,90731.03
2023-01-20T07:42:18.933Z,90728.09
2023-01-20T07:44:51.112Z,90725.06
2023-01-20T07:47:23.190Z,90724.16
2023-01-20T07:49:55.235Z,90713.34
2023-01-20T07:52:27.672Z,90705.97
2023-01-20T07:55:00.335Z,90714.94
2023-01-20T07:57:32.862Z,90709.53
2023-01-20T08:00:05.701Z,90707.88
2023-01-20T08:02:39.535Z,90710.00
2023-01-20T08:05:11.684Z,90696.03
2023-01-20T08:07:43.939Z,90685.84
2023-01-20T08:10:16.944Z,90679.06
2023-01-20T08:12:48.945Z,90690.78
2023-01-20T08:15:21.054Z,90703.44
2023-01-20T08:17:53.393Z,90692.31
2023-01-20T08:20:25.488Z,90694.75
2023-01-20T08:22:57.520Z,90700.84
2023-01-20T08:25:30.223Z,90697.22
2023-01-20T08:28:03.839Z,90699.53
2023-01-20T08:30:37.446Z,90697.59
2023-01-20T08:33:09.482Z,90693.06
2023-01-20T08:35:41.493Z,90684.63
2023-01-20T08:38:13.919Z,90679.75
2023-01-20T08:40:47.404Z,90678.38
2023-01-20T08:43:19.695Z,90677.03
2023-01-20T08:45:58.005Z,90670.75
2023-01-20T08:48:30.328Z,90661.16
2023-01-20T08:51:03.129Z,90654.44
2023-01-20T08:53:35.674Z,90649.28
2023-01-20T08:56:08.699Z,90645.94
2023-01-20T08:58:41.142Z,90647.75
2023-01-20T09:01:14.867Z,90661.31
2023-01-20T09:04:03.351Z,90676.06
2023-01-20T09:06:37.859Z,90689.16
2023-01-20T09:09:10.810Z,90671.69
2023-01-20T09:11:49.890Z,90661.53
2023-01-20T09:14:22.683Z,90669.47
2023-01-20T09:16:54.664Z,90661.41
2023-01-20T09:19:26.875Z,90661.25
2023-01-20T09:21:58.894Z,90659.44
2023-01-20T09:24:30.984Z,90654.22
2023-01-20T09:27:03.831Z,90642.94
2023-01-20T09:29:36.152Z,90636.25
2023-01-20T09:32:08.363Z,90632.75
2023-01-20T09:34:40.545Z,90632.44
2023-01-20T09:37:30.590Z,90644.19
2023-01-20T09:40:21.233Z,90635.16
2023-01-20T09:43:18.714Z,90650.72
2023-01-20T09:45:53.387Z,90658.19
2023-01-20T09:48:51.746Z,90648.13
2023-01-20T09:51:44.408Z,90658.34
2023-01-20T09:54:20.322Z,90654.38
2023-01-20T09:56:54.243Z,90650.72
2023-01-20T09:59:30.077Z,90643.13
2023-01-20T10:02:05.195Z,90630.00
2023-01-20T10:04:39.341Z,90628.59
2023-01-20T10:07:12.752Z,90628.28
2023-01-20T10:09:49.384Z,90609.03
2023-01-20T10:12:25.140Z,90607.38
2023-01-20T10:15:03.499Z,90596.22
2023-01-20T10:17:37.573Z,90596.16
2023-01-20T10:20:11.385Z,90596.78
2023-01-20T10:22:47.585Z,90596.88
2023-01-20T10:25:22.391Z,90593.84
2023-01-20T10:27:55.964Z,90599.38
2023-01-20T10:30:31.203Z,90600.13
2023-01-20T10:33:08.050Z,90604.47
2023-01-20T10:35:42.798Z,90603.34
2023-01-20T10:38:19.291Z,90601.72
2023-01-20T10:40:54.247Z,90593.56
2023-01-20T10:43:26.505Z,90598.13
2023-01-20T10:46:12.691Z,90614.13
2023-01-20T10:49:00.119Z,90596.72
2023-01-20T10:51:34.521Z,90610.78
2023-01-20T10:54:12.012Z,90612.16
2023-01-20T10:56:52.545Z,90619.38
2023-01-20T10:59:28.708Z,90610.22
2023-01-20T11:02:12.037Z,90620.38
2023-01-20T11:04:45.688Z,90618.88
2023-01-20T11:07:18.360Z,90634.13
2023-01-20T11:09:50.583Z,90628.53
2023-01-20T11:12:25.340Z,90630.63
2023-01-20T11:15:00.135Z,90620.72
2023-01-20T11:17:33.293Z,90638.38
2023-01-20T11:20:06.105Z,90631.38
2023-01-20T11:22:38.290Z,90643.69
2023-01-20T11:25:22.251Z,90628.31
2023-01-20T11:27:54.321Z,90638.16
2023-01-20T11:30:28.379Z,90643.88
2023-01-20T11:33:17.196Z,90639.25
2023-01-20T11:36:00.362Z,90635.06
2023-01-20T11:38:40.672Z,90631.78
2023-01-20T11:41:20.074Z,90640.94
2023-01-20T11:43:54.651Z,90645.78
2023-01-20T11:46:28.643Z,90666.47
2023-01-20T11:49:15.472Z,90673.34
2023-01-20T11:51:49.465Z,90681.78
2023-01-20T11:54:22.450Z,90687.59
2023-01-20T11:56:56.325Z,90698.69
2023-01-20T11:59:28.961Z,90705.09
2023-01-20T12:02:02.461Z,90711.53
2023-01-20T12:05:07.775Z,90709.25
2023-01-20T12:07:42.604Z,90711.59
2023-01-20T12:10:17.338Z,90708.03
2023-01-20T12:12:51.383Z,90715.00
2023-01-20T12:15:24.992Z,90704.63
2023-01-20T12:17:59.240Z,90701.44
2023-01-20T12:20:45.679Z,90689.75
2023-01-20T12:23:29.761Z,90702.53
2023-01-20T12:26:02.657Z,90707.69
2023-01-20T12:28:38.485Z,90721.78
2023-01-20T12:31:11.049Z,90708.63
2023-01-20T12:33:43.886Z,90714.84
2023-01-20T12:36:24.318Z,90727.41
2023-01-20T12:39:11.248Z,90732.63
2023-01-20T12:41:53.749Z,90729.56
2023-01-20T12:44:29.577Z,90746.28
2023-01-20T12:47:05.999Z,90752.91
2023-01-20T12:49:47.774Z,90749.50
2023-01-20T12:52:26.854Z,90744.00
2023-01-20T12:55:06.353Z,90757.28
2023-01-20T12:57:43.736Z,90751.66
2023-01-20T13:00:22.501Z,90746.69
2023-01-20T13:03:15.259Z,90753.38
2023-01-20T13:06:05.651Z,90750.47
2023-01-20T13:08:41.613Z,90748.09
2023-01-20T13:11:17.318Z,90750.34
2023-01-20T13:13:58.718Z,90754.28
2023-01-20T13:16:33.926Z,90758.28
2023-01-20T13:19:08.137Z,90755.38
2023-01-20T13:21:41.945Z,90753.63
2023-01-20T13:24:18.173Z,90754.69
2023-01-20T13:26:50.767Z,90751.97
2023-01-20T13:29:39.927Z,90754.75
2023-01-20T13:32:34.086Z,90754.16
2023-01-20T13:35:21.008Z,90765.34
2023-01-20T13:37:54.527Z,90766.53
2023-01-20T13:40:44.952Z,90763.28
2023-01-20T13:43:31.853Z,90767.25
2023-01-20T13:46:22.336Z,90767.59
2023-01-20T13:49:14.373Z,90772.69
2023-01-20T13:51:47.451Z,90764.19
2023-01-20T13:54:38.104Z,90759.59
2023-01-20T13:57:37.129Z,90758.72
2023-01-20T14:00:13.443Z,90771.19
2023-01-20T14:02:49.650Z,90790.03
2023-01-20T14:05:32.136Z,90802.50
2023-01-20T14:08:12.984Z,90799.13
2023-01-20T14:10:45.210Z,90802.91
2023-01-20T14:13:27.288Z,90795.94
2023-01-20T14:15:59.310Z,90800.25
2023-01-20T14:18:31.520Z,90799.53
2023-01-20T14:21:05.264Z,90800.75
2023-01-20T14:23:38.777Z,90798.56
2023-01-20T14:26:11.731Z,90804.09
2023-01-20T14:28:48.267Z,90812.72
2023-01-20T14:31:29.550Z,90807.72
2023-01-20T14:34:03.376Z,90803.03
2023-01-20T14:36:35.504Z,90799.78
2023-01-20T14:39:15.471Z,90810.59
2023-01-20T14:41:48.560Z,90805.25
2023-01-20T14:44:21.527Z,90809.34
2023-01-20T14:46:55.303Z,90815.66
2023-01-20T14:49:30.503Z,90818.25
2023-01-20T14:52:03.696Z,90832.00
2023-01-20T14:54:37.751Z,90836.69
2023-01-20T14:57:19.088Z,90838.72
2023-01-20T15:00:14.685Z,90848.28
2023-01-20T15:02:52.758Z,90851.03
2023-01-20T15:05:34.399Z,90862.16
2023-01-20T15:08:15.730Z,90860.63
2023-01-20T15:11:09.620Z,90863.38
2023-01-20T15:13:42.418Z,90865.59
2023-01-20T15:16:16.944Z,90868.66
2023-01-20T15:19:03.862Z,90858.97
2023-01-20T15:21:35.908Z,90876.84
2023-01-20T15:24:12.035Z,90875.94
2023-01-20T15:26:45.485Z,90884.69
2023-01-20T15:29:19.473Z,90888.69
2023-01-20T15:31:52.310Z,90888.00
2023-01-20T15:34:24.835Z,90897.00
2023-01-20T15:36:56.920Z,90911.97
2023-01-20T15:39:29.668Z,90929.69
2023-01-20T15:42:02.385Z,90922.59
2023-01-20T15:44:34.416Z,90935.78
2023-01-20T15:47:12.521Z,90927.63
2023-01-20T15:49:44.820Z,90939.88
2023-01-20T15:52:16.850Z,90945.38
2023-01-20T15:54:49.007Z,90954.78
2023-01-20T15:57:21.705Z,90956.28
2023-01-20T15:59:53.860Z,90960.91
2023-01-20T16:02:25.941Z,90955.56
2023-01-20T16:04:58.094Z,90956.25
2023-01-20T16:07:30.144Z,90968.16
2023-01-20T16:10:02.232Z,90966.47
2023-01-20T16:12:34.915Z,90963.25
2023-01-20T16:15:07.637Z,90960.03
2023-01-20T16:17:39.663Z,90969.22
2023-01-20T16:20:18.136Z,90978.69
2023-01-20T16:22:50.827Z,90984.63
2023-01-20T16:25:24.055Z,90993.63
2023-01-20T16:27:57.292Z,90989.59
2023-01-20T16:30:29.434Z,90991.19
2023-01-20T16:33:01.545Z,90996.38
2023-01-20T16:35:33.602Z,90996.69
2023-01-20T16:38:05.739Z,90994.38
2023-01-20T16:40:43.961Z,91010.72
2023-01-20T16:43:17.324Z,91012.84
2023-01-20T16:45:53.568Z,91014.06
2023-01-20T16:48:25.760Z,91015.22
2023-01-20T16:51:03.725Z,91017.66
2023-01-20T16:53:35.893Z,91019.13
2023-01-20T16:56:12.212Z,91021.75
2023-01-20T16:58:46.808Z,91031.31
2023-01-20T17:01:23.832Z,91030.44
2023-01-20T17:03:58.009Z,91037.22
2023-01-20T17:06:31.305Z,91038.84
2023-01-20T17:09:04.132Z,91041.78
2023-01-20T17:11:37.740Z,91042.72
2023-01-20T17:14:10.911Z,91042.06
2023-01-20T17:16:43.054Z,91050.59
2023-01-20T17:19:17.538Z,91042.78
2023-01-20T17:21:50.446Z,91044.72
2023-01-20T17:24:22.558Z,91052.59
2023-01-20T17:26:54.893Z,91051.91
2023-01-20T17:29:27.653Z,91059.66
2023-01-20T17:31:59.848Z,91067.91
2023-01-20T17:34:31.934Z,91065.22
2023-01-20T17:37:04.153Z,91066.25
2023-01-20T17:39:36.612Z,91073.00
2023-01-20T17:42:08.659Z,91067.09
2023-01-20T17:44:41.402Z,91062.13
2023-01-20T17:47:13.635Z,91066.88
2023-01-20T17:49:45.663Z,91069.03
2023-01-20T17:52:19.581Z,91078.16
2023-01-20T17:54:51.647Z,91089.78
2023-01-20T17:57:25.076Z,91084.09
2023-01-20T17:59:59.576Z,91092.03
2023-01-20T18:02:31.653Z,91082.91
2023-01-20T18:05:03.997Z,91089.94
2023-01-20T18:07:36.591Z,91093.16
2023-01-20T18:10:09.365Z,91089.09
2023-01-20T18:12:41.442Z,91093.34
2023-01-20T18:15:14.188Z,91098.91
2023-01-20T18:17:46.433Z,91084.66
2023-01-20T18:20:18.658Z,91101.38
2023-01-20T18:22:50.841Z,91102.66
2023-01-20T18:25:22.957Z,91103.34
2023-01-20T18:27:55.382Z,91114.63
2023-01-20T18:30:28.166Z,91109.69
2023-01-20T18:33:00.243Z,91114.28
2023-01-20T18:35:32.995Z,91120.41
2023-01-20T18:38:05.237Z,91128.91
2023-01-20T18:40:37.313Z,91123.13
2023-01-20T18:43:09.453Z,91136.66
2023-01-20T18:45:42.150Z,91133.66
2023-01-20T18:48:14.522Z,91141.66
2023-01-20T18:50:46.630Z,91140.72
2023-01-20T18:53:18.976Z,91155.94
2023-01-20T18:55:51.018Z,91168.28
2023-01-20T18:58:23.464Z,91178.75
2023-01-20T19:01:02.008Z,91181.94
2023-01-20T19:03:35.156Z,91184.59
2023-01-20T19:06:10.087Z,91183.47
2023-01-20T19:08:42.723Z,91198.50
2023-01-20T19:11:17.531Z,91199.69
2023-01-20T19:13:50.714Z,91202.75
2023-01-20T19:16:24.115Z,91202.00
2023-01-20T19:18:57.116Z,91205.66
2023-01-20T19:21:30.697Z,91214.94
2023-01-20T19:24:05.205Z,91214.47
2023-01-20T19:26:38.289Z,91219.19
2023-01-20T19:29:11.150Z,91220.41
2023-01-20T19:31:44.075Z,91227.34
2023-01-20T19:34:17.373Z,91224.78
2023-01-20T19:36:50.077Z,91225.19
2023-01-20T19:39:22.273Z,91228.75
2023-01-20T19:41:54.683Z,91223.28
2023-01-20T19:44:28.379Z,91225.06
2023-01-20T19:47:04.512Z,91236.88
2023-01-20T19:49:36.792Z,91240.38
2023-01-20T19:52:08.962Z,91241.09
2023-01-20T19:54:41.175Z,91233.09
2023-01-20T19:57:13.235Z,91235.63
2023-01-20T19:59:45.249Z,91233.25
2023-01-20T20:02:18.115Z,91244.44
2023-01-20T20:04:51.423Z,91248.59
2023-01-20T20:07:23.730Z,91250.50
2023-01-20T20:09:55.736Z,91252.16
2023-01-20T20:12:27.921Z,91254.75
2023-01-20T20:14:59.916Z,91259.94
2023-01-20T20:17:34.398Z,91264.63
2023-01-20T20:20:07.184Z,91268.28
2023-01-20T20:22:39.316Z,91269.31
2023-01-20T20:25:11.459Z,91273.16
2023-01-20T20:27:43.722Z,91273.16
2023-01-20T20:30:17.206Z,91270.59
2023-01-20T20:32:50.259Z,91264.44
2023-01-20T20:35:22.364Z,91268.81
2023-01-20T20:37:54.488Z,91270.59
2023-01-20T20:40:26.549Z,91266.78
2023-01-20T20:42:58.688Z,91268.78
2023-01-20T20:45:30.861Z,91277.28
2023-01-20T20:48:04.209Z,91280.34
2023-01-20T20:50:36.501Z,91284.22
2023-01-20T20:53:08.708Z,91284.22
2023-01-20T20:55:41.204Z,91282.94
2023-01-20T20:58:13.804Z,91287.31
2023-01-20T21:00:49.692Z,91285.25
2023-01-20T21:03:22.653Z,91288.59
2023-01-20T21:05:55.104Z,91291.16
2023-01-20T21:08:27.305Z,91289.09
2023-01-20T21:11:01.099Z,91292.94
2023-01-20T21:13:33.662Z,91290.38
2023-01-20T21:16:09.038Z,91297.31
2023-01-20T21:18:41.882Z,91297.06
2023-01-20T21:21:16.286Z,91297.56
2023-01-20T21:23:48.699Z,91304.22
2023-01-20T21:26:21.316Z,91311.16
2023-01-20T21:28:53.406Z,91305.50
2023-01-20T21:31:26.017Z,91315.50
2023-01-20T21:33:59.685Z,91311.44
2023-01-20T21:36:33.337Z,91302.19
2023-01-20T21:39:05.467Z,91307.34
2023-01-20T21:41:37.574Z,91307.84
2023-01-20T21:44:28.071Z,91300.66
2023-01-20T21:47:01.461Z,91312.75
2023-01-20T21:49:52.931Z,91310.94
2023-01-20T21:52:44.586Z,91316.56
2023-01-20T21:55:18.472Z,91317.34
2023-01-20T21:57:51.508Z,91319.66
2023-01-20T22:00:23.760Z,91310.66
2023-01-20T22:02:55.889Z,91313.72
2023-01-20T22:05:28.733Z,91306.78
2023-01-20T22:08:01.048Z,91319.34
2023-01-20T22:10:33.036Z,91307.25
2023-01-20T22:13:06.323Z,91314.94
2023-01-20T22:15:40.347Z,91307.28
2023-01-20T22:18:12.566Z,91309.84
2023-01-20T22:20:45.276Z,91318.84
2023-01-20T22:23:17.338Z,91310.13
2023-01-20T22:25:52.246Z,91320.16
2023-01-20T22:28:24.684Z,91309.91
2023-01-20T22:31:03.789Z,91300.63
2023-01-20T22:33:35.856Z,91313.22
2023-01-20T22:36:08.901Z,91323.72
2023-01-20T22:38:41.162Z,91331.97
2023-01-20T22:41:13.407Z,91321.94
2023-01-20T22:43:47.233Z,91330.41
2023-01-20T22:46:20.479Z,91333.50
2023-01-20T22:48:53.484Z,91334.03
2023-01-20T22:51:27.001Z,91328.13
2023-01-20T22:53:59.667Z,91326.56
2023-01-20T22:56:31.994Z,91316.75
2023-01-20T22:59:04.147Z,91328.34
2023-01-20T23:01:36.663Z,91326.59
2023-01-20T23:04:09.763Z,91329.16
2023-01-20T23:06:42.746Z,91328.66
2023-01-20T23:09:14.717Z,91325.81
2023-01-20T23:11:48.179Z,91320.94
2023-01-20T23:14:40.217Z,91324.03
2023-01-20T23:17:12.294Z,91329.44
2023-01-20T23:19:44.357Z,91322.22
2023-01-20T23:22:17.127Z,91325.59
2023-01-20T23:24:49.251Z,91329.94
2023-01-20T23:27:21.503Z,91327.38
2023-01-20T23:29:55.035Z,91326.59
2023-01-20T23:32:27.144Z,91322.22
2023-01-20T23:34:59.217Z,91326.06
2023-01-20T23:37:31.989Z,91329.66
2023-01-20T23:40:04.331Z,91330.44
2023-01-20T23:42:36.392Z,91318.84
2023-01-20T23:45:08.740Z,91318.06
2023-01-20T23:47:40.841Z,91309.84
2023-01-20T23:50:12.900Z,91312.44
2023-01-20T23:52:45.755Z,91308.84
2023-01-20T23:55:17.784Z,91309.63
2023-01-20T23:57:49.884Z,91309.13
